sensor_id;sensor_type;location;lat;lon;timestamp;temperature;humidity
50570;DHT22;36525;49.398;7.614;2022-08-19T00:02:02;19.70;99.90
50570;DHT22;36525;49.398;7.614;2022-08-19T00:04:32;19.60;99.90
50570;DHT22;36525;49.398;7.614;2022-08-19T00:07:05;19.60;99.90
50570;DHT22;36525;49.398;7.614;2022-08-19T00:09:32;19.60;99.90
50570;DHT22;36525;49.398;7.614;2022-08-19T00:12:00;19.60;99.90
50570;DHT22;36525;49.398;7.614;2022-08-19T00:14:28;19.50;99.90
50570;DHT22;36525;49.398;7.614;2022-08-19T00:16:58;19.40;99.90
50570;DHT22;36525;49.398;7.614;2022-08-19T00:19:25;19.40;99.90
50570;DHT22;36525;49.398;7.614;2022-08-19T00:21:53;19.40;99.90
50570;DHT22;36525;49.398;7.614;2022-08-19T00:24:21;19.40;99.90
50570;DHT22;36525;49.398;7.614;2022-08-19T00:26:49;19.50;99.90
50570;DHT22;36525;49.398;7.614;2022-08-19T00:29:19;19.60;99.90
50570;DHT22;36525;49.398;7.614;2022-08-19T00:31:47;19.70;99.90
50570;DHT22;36525;49.398;7.614;2022-08-19T00:34:16;19.70;99.90
50570;DHT22;36525;49.398;7.614;2022-08-19T00:36:43;19.70;99.90
50570;DHT22;36525;49.398;7.614;2022-08-19T00:39:11;19.80;99.90
50570;DHT22;36525;49.398;7.614;2022-08-19T00:41:40;19.80;99.90
50570;DHT22;36525;49.398;7.614;2022-08-19T00:44:09;19.90;99.90
50570;DHT22;36525;49.398;7.614;2022-08-19T00:46:43;19.90;99.90
50570;DHT22;36525;49.398;7.614;2022-08-19T00:49:35;19.80;99.90
50570;DHT22;36525;49.398;7.614;2022-08-19T00:52:46;19.80;99.90
50570;DHT22;36525;49.398;7.614;2022-08-19T00:55:21;19.80;99.90
50570;DHT22;36525;49.398;7.614;2022-08-19T00:57:55;19.70;99.90
50570;DHT22;36525;49.398;7.614;2022-08-19T01:00:28;19.60;99.90
50570;DHT22;36525;49.398;7.614;2022-08-19T01:02:56;19.50;99.90
50570;DHT22;36525;49.398;7.614;2022-08-19T01:05:26;19.50;99.90
50570;DHT22;36525;49.398;7.614;2022-08-19T01:07:57;19.50;99.90
50570;DHT22;36525;49.398;7.614;2022-08-19T01:10:27;19.50;99.90
50570;DHT22;36525;49.398;7.614;2022-08-19T01:13:02;19.40;99.90
50570;DHT22;36525;49.398;7.614;2022-08-19T01:15:33;19.40;99.90
50570;DHT22;36525;49.398;7.614;2022-08-19T01:18:06;19.40;99.90
50570;DHT22;36525;49.398;7.614;2022-08-19T01:20:35;19.40;99.90
50570;DHT22;36525;49.398;7.614;2022-08-19T01:23:02;19.50;99.90
50570;DHT22;36525;49.398;7.614;2022-08-19T01:25:38;19.50;99.90
50570;DHT22;36525;49.398;7.614;2022-08-19T01:28:07;19.50;99.90
50570;DHT22;36525;49.398;7.614;2022-08-19T01:30:36;19.50;99.90
50570;DHT22;36525;49.398;7.614;2022-08-19T01:33:03;19.50;99.90
50570;DHT22;36525;49.398;7.614;2022-08-19T01:35:32;19.50;99.90
50570;DHT22;36525;49.398;7.614;2022-08-19T01:38:05;19.50;99.90
50570;DHT22;36525;49.398;7.614;2022-08-19T01:40:37;19.60;99.90
50570;DHT22;36525;49.398;7.614;2022-08-19T01:43:06;19.60;99.90
50570;DHT22;36525;49.398;7.614;2022-08-19T01:45:34;19.50;99.90
50570;DHT22;36525;49.398;7.614;2022-08-19T01:48:02;19.50;99.90
50570;DHT22;36525;49.398;7.614;2022-08-19T01:50:31;19.50;99.90
50570;DHT22;36525;49.398;7.614;2022-08-19T01:53:02;19.50;99.90
50570;DHT22;36525;49.398;7.614;2022-08-19T01:55:35;19.50;99.90
50570;DHT22;36525;49.398;7.614;2022-08-19T01:58:08;19.40;99.90
50570;DHT22;36525;49.398;7.614;2022-08-19T02:00:42;19.40;99.90
50570;DHT22;36525;49.398;7.614;2022-08-19T02:03:09;19.50;99.90
50570;DHT22;36525;49.398;7.614;2022-08-19T02:05:39;19.50;99.90
50570;DHT22;36525;49.398;7.614;2022-08-19T02:08:07;19.60;99.90
50570;DHT22;36525;49.398;7.614;2022-08-19T02:10:40;19.60;99.90
50570;DHT22;36525;49.398;7.614;2022-08-19T02:13:08;19.70;99.90
50570;DHT22;36525;49.398;7.614;2022-08-19T02:15:36;19.60;99.90
50570;DHT22;36525;49.398;7.614;2022-08-19T02:18:03;19.50;99.90
50570;DHT22;36525;49.398;7.614;2022-08-19T02:20:31;19.50;99.90
50570;DHT22;36525;49.398;7.614;2022-08-19T02:22:58;19.40;99.90
50570;DHT22;36525;49.398;7.614;2022-08-19T02:25:27;19.40;99.90
50570;DHT22;36525;49.398;7.614;2022-08-19T02:27:54;19.40;99.90
50570;DHT22;36525;49.398;7.614;2022-08-19T02:30:21;19.40;99.90
50570;DHT22;36525;49.398;7.614;2022-08-19T02:32:48;19.40;99.90
50570;DHT22;36525;49.398;7.614;2022-08-19T02:35:16;19.40;99.90
50570;DHT22;36525;49.398;7.614;2022-08-19T02:37:43;19.40;99.90
50570;DHT22;36525;49.398;7.614;2022-08-19T02:40:31;19.40;99.90
50570;DHT22;36525;49.398;7.614;2022-08-19T02:43:05;19.40;99.90
50570;DHT22;36525;49.398;7.614;2022-08-19T02:45:36;19.40;99.90
50570;DHT22;36525;49.398;7.614;2022-08-19T02:48:07;19.40;99.90
50570;DHT22;36525;49.398;7.614;2022-08-19T02:50:48;19.40;99.90
50570;DHT22;36525;49.398;7.614;2022-08-19T02:53:23;19.40;99.90
50570;DHT22;36525;49.398;7.614;2022-08-19T02:55:51;19.40;99.90
50570;DHT22;36525;49.398;7.614;2022-08-19T02:58:19;19.40;99.90
50570;DHT22;36525;49.398;7.614;2022-08-19T03:00:51;19.40;99.90
50570;DHT22;36525;49.398;7.614;2022-08-19T03:03:20;19.40;99.90
50570;DHT22;36525;49.398;7.614;2022-08-19T03:05:47;19.40;99.90
50570;DHT22;36525;49.398;7.614;2022-08-19T03:08:23;19.30;99.90
50570;DHT22;36525;49.398;7.614;2022-08-19T03:10:52;19.30;99.90
50570;DHT22;36525;49.398;7.614;2022-08-19T03:13:20;19.30;99.90
50570;DHT22;36525;49.398;7.614;2022-08-19T03:15:48;19.30;99.90
50570;DHT22;36525;49.398;7.614;2022-08-19T03:18:16;19.20;99.90
50570;DHT22;36525;49.398;7.614;2022-08-19T03:20:52;19.20;99.90
50570;DHT22;36525;49.398;7.614;2022-08-19T03:23:21;19.10;99.90
50570;DHT22;36525;49.398;7.614;2022-08-19T03:25:50;19.10;99.90
50570;DHT22;36525;49.398;7.614;2022-08-19T03:28:38;18.90;99.90
50570;DHT22;36525;49.398;7.614;2022-08-19T03:31:09;18.80;99.90
50570;DHT22;36525;49.398;7.614;2022-08-19T03:33:58;18.80;99.90
50570;DHT22;36525;49.398;7.614;2022-08-19T03:36:26;18.90;99.90
50570;DHT22;36525;49.398;7.614;2022-08-19T03:38:57;19.00;99.90
50570;DHT22;36525;49.398;7.614;2022-08-19T03:41:39;19.00;99.90
50570;DHT22;36525;49.398;7.614;2022-08-19T03:44:13;18.90;99.90
50570;DHT22;36525;49.398;7.614;2022-08-19T03:46:49;18.80;99.90
50570;DHT22;36525;49.398;7.614;2022-08-19T03:49:18;18.70;99.90
50570;DHT22;36525;49.398;7.614;2022-08-19T03:51:48;18.60;99.90
50570;DHT22;36525;49.398;7.614;2022-08-19T03:54:22;18.60;99.90
50570;DHT22;36525;49.398;7.614;2022-08-19T03:56:52;18.50;99.90
50570;DHT22;36525;49.398;7.614;2022-08-19T03:59:31;18.50;99.90
50570;DHT22;36525;49.398;7.614;2022-08-19T04:02:01;18.50;99.90
50570;DHT22;36525;49.398;7.614;2022-08-19T04:04:29;18.40;99.90
50570;DHT22;36525;49.398;7.614;2022-08-19T04:06:57;18.30;99.90
50570;DHT22;36525;49.398;7.614;2022-08-19T04:09:25;18.30;99.90
50570;DHT22;36525;49.398;7.614;2022-08-19T04:11:56;18.20;99.90
50570;DHT22;36525;49.398;7.614;2022-08-19T04:14:26;18.30;99.90
50570;DHT22;36525;49.398;7.614;2022-08-19T04:16:57;18.30;99.90
50570;DHT22;36525;49.398;7.614;2022-08-19T04:19:26;18.20;99.90
50570;DHT22;36525;49.398;7.614;2022-08-19T04:21:54;18.20;99.90
50570;DHT22;36525;49.398;7.614;2022-08-19T04:24:24;18.20;99.90
50570;DHT22;36525;49.398;7.614;2022-08-19T04:26:55;18.20;99.90
50570;DHT22;36525;49.398;7.614;2022-08-19T04:29:23;18.30;99.90
50570;DHT22;36525;49.398;7.614;2022-08-19T04:31:53;18.20;99.90
50570;DHT22;36525;49.398;7.614;2022-08-19T04:34:23;18.20;99.90
50570;DHT22;36525;49.398;7.614;2022-08-19T04:36:53;18.20;99.90
50570;DHT22;36525;49.398;7.614;2022-08-19T04:39:24;18.30;99.90
50570;DHT22;36525;49.398;7.614;2022-08-19T04:42:12;18.40;99.90
50570;DHT22;36525;49.398;7.614;2022-08-19T04:44:58;18.50;99.90
50570;DHT22;36525;49.398;7.614;2022-08-19T04:47:25;18.60;99.90
50570;DHT22;36525;49.398;7.614;2022-08-19T04:50:13;18.50;99.90
50570;DHT22;36525;49.398;7.614;2022-08-19T04:52:40;18.40;99.90
50570;DHT22;36525;49.398;7.614;2022-08-19T04:55:10;18.30;99.90
50570;DHT22;36525;49.398;7.614;2022-08-19T04:57:39;18.20;99.90
50570;DHT22;36525;49.398;7.614;2022-08-19T05:00:08;18.10;99.90
50570;DHT22;36525;49.398;7.614;2022-08-19T05:02:37;18.10;99.90
50570;DHT22;36525;49.398;7.614;2022-08-19T05:05:05;18.10;99.90
50570;DHT22;36525;49.398;7.614;2022-08-19T05:07:33;18.20;99.90
50570;DHT22;36525;49.398;7.614;2022-08-19T05:10:01;18.30;99.90
50570;DHT22;36525;49.398;7.614;2022-08-19T05:12:29;18.40;99.90
50570;DHT22;36525;49.398;7.614;2022-08-19T05:14:57;18.50;99.90
50570;DHT22;36525;49.398;7.614;2022-08-19T05:17:26;18.50;99.90
50570;DHT22;36525;49.398;7.614;2022-08-19T05:19:59;18.60;99.90
50570;DHT22;36525;49.398;7.614;2022-08-19T05:22:46;18.60;99.90
50570;DHT22;36525;49.398;7.614;2022-08-19T05:25:16;18.40;99.90
50570;DHT22;36525;49.398;7.614;2022-08-19T05:27:47;18.40;99.90
50570;DHT22;36525;49.398;7.614;2022-08-19T05:30:16;18.50;99.90
50570;DHT22;36525;49.398;7.614;2022-08-19T05:32:44;18.60;99.90
50570;DHT22;36525;49.398;7.614;2022-08-19T05:35:11;18.70;99.90
50570;DHT22;36525;49.398;7.614;2022-08-19T05:37:45;18.80;99.90
50570;DHT22;36525;49.398;7.614;2022-08-19T05:40:12;18.90;99.90
50570;DHT22;36525;49.398;7.614;2022-08-19T05:42:39;19.00;99.90
50570;DHT22;36525;49.398;7.614;2022-08-19T05:45:06;19.00;99.90
50570;DHT22;36525;49.398;7.614;2022-08-19T05:47:34;19.10;99.90
50570;DHT22;36525;49.398;7.614;2022-08-19T05:50:08;19.20;99.90
50570;DHT22;36525;49.398;7.614;2022-08-19T05:52:36;19.40;99.90
50570;DHT22;36525;49.398;7.614;2022-08-19T05:55:09;19.60;99.90
50570;DHT22;36525;49.398;7.614;2022-08-19T06:00:05;19.70;99.90
50570;DHT22;36525;49.398;7.614;2022-08-19T06:02:37;19.80;99.90
50570;DHT22;36525;49.398;7.614;2022-08-19T06:05:05;19.90;99.90
50570;DHT22;36525;49.398;7.614;2022-08-19T06:07:33;19.90;99.90
50570;DHT22;36525;49.398;7.614;2022-08-19T06:10:08;20.00;99.90
50570;DHT22;36525;49.398;7.614;2022-08-19T06:12:36;20.20;99.90
50570;DHT22;36525;49.398;7.614;2022-08-19T06:15:08;20.20;99.90
50570;DHT22;36525;49.398;7.614;2022-08-19T06:17:37;20.30;99.90
50570;DHT22;36525;49.398;7.614;2022-08-19T06:20:06;20.40;99.90
50570;DHT22;36525;49.398;7.614;2022-08-19T06:22:41;20.60;99.90
50570;DHT22;36525;49.398;7.614;2022-08-19T06:25:10;20.80;99.90
50570;DHT22;36525;49.398;7.614;2022-08-19T06:27:38;20.80;99.90
50570;DHT22;36525;49.398;7.614;2022-08-19T06:30:26;20.80;99.90
50570;DHT22;36525;49.398;7.614;2022-08-19T06:32:53;20.80;99.90
50570;DHT22;36525;49.398;7.614;2022-08-19T06:35:20;20.90;99.90
50570;DHT22;36525;49.398;7.614;2022-08-19T06:37:47;21.00;99.90
50570;DHT22;36525;49.398;7.614;2022-08-19T06:40:14;20.90;99.90
50570;DHT22;36525;49.398;7.614;2022-08-19T06:42:41;21.00;99.90
50570;DHT22;36525;49.398;7.614;2022-08-19T06:45:21;21.10;99.90
50570;DHT22;36525;49.398;7.614;2022-08-19T06:48:00;21.20;99.90
50570;DHT22;36525;49.398;7.614;2022-08-19T06:50:27;21.30;99.90
50570;DHT22;36525;49.398;7.614;2022-08-19T06:52:54;21.30;99.90
50570;DHT22;36525;49.398;7.614;2022-08-19T06:55:21;21.40;99.90
50570;DHT22;36525;49.398;7.614;2022-08-19T06:57:49;21.60;99.90
50570;DHT22;36525;49.398;7.614;2022-08-19T07:00:20;21.80;99.90
50570;DHT22;36525;49.398;7.614;2022-08-19T07:02:47;22.00;99.90
50570;DHT22;36525;49.398;7.614;2022-08-19T07:05:24;22.10;99.90
50570;DHT22;36525;49.398;7.614;2022-08-19T07:07:51;22.20;99.90
50570;DHT22;36525;49.398;7.614;2022-08-19T07:10:18;22.20;99.90
50570;DHT22;36525;49.398;7.614;2022-08-19T07:12:45;22.30;99.90
50570;DHT22;36525;49.398;7.614;2022-08-19T07:15:13;22.40;99.90
50570;DHT22;36525;49.398;7.614;2022-08-19T07:17:40;22.50;99.90
50570;DHT22;36525;49.398;7.614;2022-08-19T07:20:09;22.50;99.90
50570;DHT22;36525;49.398;7.614;2022-08-19T07:22:39;22.50;99.90
50570;DHT22;36525;49.398;7.614;2022-08-19T07:25:09;22.60;99.90
50570;DHT22;36525;49.398;7.614;2022-08-19T07:27:36;22.70;99.90
50570;DHT22;36525;49.398;7.614;2022-08-19T07:30:06;22.60;99.90
50570;DHT22;36525;49.398;7.614;2022-08-19T07:32:38;22.50;99.90
50570;DHT22;36525;49.398;7.614;2022-08-19T07:35:06;22.50;99.90
50570;DHT22;36525;49.398;7.614;2022-08-19T07:37:33;22.50;99.90
50570;DHT22;36525;49.398;7.614;2022-08-19T07:40:04;22.40;99.90
50570;DHT22;36525;49.398;7.614;2022-08-19T07:42:33;22.60;99.90
50570;DHT22;36525;49.398;7.614;2022-08-19T07:44:59;22.80;99.90
50570;DHT22;36525;49.398;7.614;2022-08-19T07:47:27;23.00;99.90
50570;DHT22;36525;49.398;7.614;2022-08-19T07:50:15;23.00;99.90
50570;DHT22;36525;49.398;7.614;2022-08-19T07:52:42;23.10;99.90
50570;DHT22;36525;49.398;7.614;2022-08-19T07:55:15;23.10;99.90
50570;DHT22;36525;49.398;7.614;2022-08-19T07:58:04;23.10;99.90
50570;DHT22;36525;49.398;7.614;2022-08-19T08:00:35;23.20;99.90
50570;DHT22;36525;49.398;7.614;2022-08-19T08:03:02;23.20;99.90
50570;DHT22;36525;49.398;7.614;2022-08-19T08:05:29;23.30;99.90
50570;DHT22;36525;49.398;7.614;2022-08-19T08:08:32;23.50;99.90
50570;DHT22;36525;49.398;7.614;2022-08-19T08:11:20;23.40;99.90
50570;DHT22;36525;49.398;7.614;2022-08-19T08:13:49;23.60;99.90
50570;DHT22;36525;49.398;7.614;2022-08-19T08:16:27;23.70;99.90
50570;DHT22;36525;49.398;7.614;2022-08-19T08:19:00;23.60;99.90
50570;DHT22;36525;49.398;7.614;2022-08-19T08:21:27;23.70;99.90
50570;DHT22;36525;49.398;7.614;2022-08-19T08:23:54;23.80;99.90
50570;DHT22;36525;49.398;7.614;2022-08-19T08:26:22;23.90;99.90
50570;DHT22;36525;49.398;7.614;2022-08-19T08:28:50;23.90;99.90
50570;DHT22;36525;49.398;7.614;2022-08-19T08:31:18;23.90;99.90
50570;DHT22;36525;49.398;7.614;2022-08-19T08:33:46;23.40;99.90
50570;DHT22;36525;49.398;7.614;2022-08-19T08:36:15;23.40;99.90
50570;DHT22;36525;49.398;7.614;2022-08-19T08:38:43;23.50;99.90
50570;DHT22;36525;49.398;7.614;2022-08-19T08:41:31;23.70;99.90
50570;DHT22;36525;49.398;7.614;2022-08-19T08:44:02;24.00;99.90
50570;DHT22;36525;49.398;7.614;2022-08-19T08:46:38;24.50;99.90
50570;DHT22;36525;49.398;7.614;2022-08-19T08:52:15;25.00;99.90
50570;DHT22;36525;49.398;7.614;2022-08-19T08:54:43;25.10;99.90
50570;DHT22;36525;49.398;7.614;2022-08-19T08:57:33;25.70;99.90
50570;DHT22;36525;49.398;7.614;2022-08-19T09:00:17;25.70;99.90
50570;DHT22;36525;49.398;7.614;2022-08-19T09:02:46;25.50;99.90
50570;DHT22;36525;49.398;7.614;2022-08-19T09:05:17;25.30;99.90
50570;DHT22;36525;49.398;7.614;2022-08-19T09:08:05;25.20;99.90
50570;DHT22;36525;49.398;7.614;2022-08-19T09:10:52;24.90;99.90
50570;DHT22;36525;49.398;7.614;2022-08-19T09:16:22;24.70;99.90
50570;DHT22;36525;49.398;7.614;2022-08-19T09:18:56;24.60;99.90
50570;DHT22;36525;49.398;7.614;2022-08-19T09:21:25;24.40;99.90
50570;DHT22;36525;49.398;7.614;2022-08-19T09:24:00;24.20;99.90
50570;DHT22;36525;49.398;7.614;2022-08-19T09:26:29;24.00;99.90
50570;DHT22;36525;49.398;7.614;2022-08-19T09:29:18;24.00;99.90
50570;DHT22;36525;49.398;7.614;2022-08-19T09:31:48;24.40;99.90
50570;DHT22;36525;49.398;7.614;2022-08-19T09:34:16;24.90;99.90
50570;DHT22;36525;49.398;7.614;2022-08-19T09:36:48;25.40;99.90
50570;DHT22;36525;49.398;7.614;2022-08-19T09:39:20;26.00;99.90
50570;DHT22;36525;49.398;7.614;2022-08-19T09:41:48;26.30;99.90
50570;DHT22;36525;49.398;7.614;2022-08-19T09:44:17;26.40;99.90
50570;DHT22;36525;49.398;7.614;2022-08-19T09:46:45;26.80;99.90
50570;DHT22;36525;49.398;7.614;2022-08-19T09:49:15;27.10;99.90
50570;DHT22;36525;49.398;7.614;2022-08-19T09:51:51;27.60;99.90
50570;DHT22;36525;49.398;7.614;2022-08-19T09:54:20;27.60;99.90
50570;DHT22;36525;49.398;7.614;2022-08-19T09:56:51;27.70;99.90
50570;DHT22;36525;49.398;7.614;2022-08-19T09:59:19;27.80;99.90
50570;DHT22;36525;49.398;7.614;2022-08-19T10:01:46;27.80;99.90
50570;DHT22;36525;49.398;7.614;2022-08-19T10:04:15;27.60;99.90
50570;DHT22;36525;49.398;7.614;2022-08-19T10:06:46;27.20;99.90
50570;DHT22;36525;49.398;7.614;2022-08-19T10:09:19;26.90;99.90
50570;DHT22;36525;49.398;7.614;2022-08-19T10:12:01;27.00;99.90
50570;DHT22;36525;49.398;7.614;2022-08-19T10:14:30;27.00;99.90
50570;DHT22;36525;49.398;7.614;2022-08-19T10:16:58;27.30;99.90
50570;DHT22;36525;49.398;7.614;2022-08-19T10:19:42;27.50;99.90
50570;DHT22;36525;49.398;7.614;2022-08-19T10:22:22;27.80;99.90
50570;DHT22;36525;49.398;7.614;2022-08-19T10:24:51;28.00;99.90
50570;DHT22;36525;49.398;7.614;2022-08-19T10:27:19;28.30;99.90
50570;DHT22;36525;49.398;7.614;2022-08-19T10:29:46;28.50;99.20
50570;DHT22;36525;49.398;7.614;2022-08-19T10:32:14;28.90;99.20
50570;DHT22;36525;49.398;7.614;2022-08-19T10:34:42;29.00;99.10
50570;DHT22;36525;49.398;7.614;2022-08-19T10:37:15;29.10;98.50
50570;DHT22;36525;49.398;7.614;2022-08-19T10:39:50;29.20;97.30
50570;DHT22;36525;49.398;7.614;2022-08-19T10:42:17;29.20;97.60
50570;DHT22;36525;49.398;7.614;2022-08-19T10:44:45;29.20;97.00
50570;DHT22;36525;49.398;7.614;2022-08-19T10:47:13;29.00;96.90
50570;DHT22;36525;49.398;7.614;2022-08-19T10:49:50;29.30;96.50
50570;DHT22;36525;49.398;7.614;2022-08-19T10:52:39;29.50;96.00
50570;DHT22;36525;49.398;7.614;2022-08-19T10:55:20;29.90;95.10
50570;DHT22;36525;49.398;7.614;2022-08-19T10:58:12;29.70;94.20
50570;DHT22;36525;49.398;7.614;2022-08-19T11:00:41;29.70;94.30
50570;DHT22;36525;49.398;7.614;2022-08-19T11:03:10;29.80;94.30
50570;DHT22;36525;49.398;7.614;2022-08-19T11:05:37;29.90;93.40
50570;DHT22;36525;49.398;7.614;2022-08-19T11:08:06;30.30;93.30
50570;DHT22;36525;49.398;7.614;2022-08-19T11:10:50;30.60;93.20
50570;DHT22;36525;49.398;7.614;2022-08-19T11:13:21;30.30;92.40
50570;DHT22;36525;49.398;7.614;2022-08-19T11:16:11;30.10;92.30
50570;DHT22;36525;49.398;7.614;2022-08-19T11:18:43;29.80;92.80
50570;DHT22;36525;49.398;7.614;2022-08-19T11:21:16;29.50;92.80
50570;DHT22;36525;49.398;7.614;2022-08-19T11:23:47;29.20;93.10
50570;DHT22;36525;49.398;7.614;2022-08-19T11:26:17;29.30;92.30
50570;DHT22;36525;49.398;7.614;2022-08-19T11:28:45;29.20;91.70
50570;DHT22;36525;49.398;7.614;2022-08-19T11:31:18;28.70;92.40
50570;DHT22;36525;49.398;7.614;2022-08-19T11:33:49;29.20;92.10
50570;DHT22;36525;49.398;7.614;2022-08-19T11:36:21;29.70;91.70
50570;DHT22;36525;49.398;7.614;2022-08-19T11:38:49;30.20;91.70
50570;DHT22;36525;49.398;7.614;2022-08-19T11:41:18;29.90;90.50
50570;DHT22;36525;49.398;7.614;2022-08-19T11:43:46;29.60;90.80
50570;DHT22;36525;49.398;7.614;2022-08-19T11:46:14;29.60;91.40
50570;DHT22;36525;49.398;7.614;2022-08-19T11:48:43;29.90;91.40
50570;DHT22;36525;49.398;7.614;2022-08-19T11:51:14;29.90;91.20
50570;DHT22;36525;49.398;7.614;2022-08-19T11:53:42;29.90;90.70
50570;DHT22;36525;49.398;7.614;2022-08-19T11:56:09;30.00;91.30
50570;DHT22;36525;49.398;7.614;2022-08-19T11:58:39;29.70;90.50
50570;DHT22;36525;49.398;7.614;2022-08-19T12:01:09;29.90;90.50
50570;DHT22;36525;49.398;7.614;2022-08-19T12:03:46;30.00;90.30
50570;DHT22;36525;49.398;7.614;2022-08-19T12:06:18;30.10;90.20
50570;DHT22;36525;49.398;7.614;2022-08-19T12:08:56;30.60;89.00
50570;DHT22;36525;49.398;7.614;2022-08-19T12:11:24;31.20;89.60
50570;DHT22;36525;49.398;7.614;2022-08-19T12:13:52;31.00;88.10
50570;DHT22;36525;49.398;7.614;2022-08-19T12:16:26;30.90;87.30
50570;DHT22;36525;49.398;7.614;2022-08-19T12:18:55;30.60;88.40
50570;DHT22;36525;49.398;7.614;2022-08-19T12:21:26;30.30;88.30
50570;DHT22;36525;49.398;7.614;2022-08-19T12:23:58;29.90;90.00
50570;DHT22;36525;49.398;7.614;2022-08-19T12:26:27;29.40;90.10
50570;DHT22;36525;49.398;7.614;2022-08-19T12:28:55;29.10;91.00
50570;DHT22;36525;49.398;7.614;2022-08-19T12:31:22;29.30;90.50
50570;DHT22;36525;49.398;7.614;2022-08-19T12:33:49;29.60;90.10
50570;DHT22;36525;49.398;7.614;2022-08-19T12:36:16;29.90;90.00
50570;DHT22;36525;49.398;7.614;2022-08-19T12:38:44;30.20;90.00
50570;DHT22;36525;49.398;7.614;2022-08-19T12:41:14;30.30;90.00
50570;DHT22;36525;49.398;7.614;2022-08-19T12:43:41;30.40;88.00
50570;DHT22;36525;49.398;7.614;2022-08-19T12:46:09;30.40;86.60
50570;DHT22;36525;49.398;7.614;2022-08-19T12:48:37;30.50;87.50
50570;DHT22;36525;49.398;7.614;2022-08-19T12:51:17;30.40;87.20
50570;DHT22;36525;49.398;7.614;2022-08-19T12:53:46;30.40;86.70
50570;DHT22;36525;49.398;7.614;2022-08-19T12:56:14;30.20;87.20
50570;DHT22;36525;49.398;7.614;2022-08-19T12:58:42;30.30;88.80
50570;DHT22;36525;49.398;7.614;2022-08-19T13:01:17;30.60;86.70
50570;DHT22;36525;49.398;7.614;2022-08-19T13:03:49;30.40;86.50
50570;DHT22;36525;49.398;7.614;2022-08-19T13:06:18;30.30;86.60
50570;DHT22;36525;49.398;7.614;2022-08-19T13:08:46;30.10;87.40
50570;DHT22;36525;49.398;7.614;2022-08-19T13:11:18;30.30;86.80
50570;DHT22;36525;49.398;7.614;2022-08-19T13:13:48;30.40;86.40
50570;DHT22;36525;49.398;7.614;2022-08-19T13:16:18;30.60;85.40
50570;DHT22;36525;49.398;7.614;2022-08-19T13:18:46;30.10;85.80
50570;DHT22;36525;49.398;7.614;2022-08-19T13:21:14;30.10;86.00
50570;DHT22;36525;49.398;7.614;2022-08-19T13:23:41;30.70;85.30
50570;DHT22;36525;49.398;7.614;2022-08-19T13:26:10;31.20;85.90
50570;DHT22;36525;49.398;7.614;2022-08-19T13:28:39;32.10;84.50
50570;DHT22;36525;49.398;7.614;2022-08-19T13:31:28;32.80;84.20
50570;DHT22;36525;49.398;7.614;2022-08-19T13:36:44;31.60;81.40
50570;DHT22;36525;49.398;7.614;2022-08-19T13:39:12;31.10;82.10
50570;DHT22;36525;49.398;7.614;2022-08-19T13:41:44;31.70;81.60
50570;DHT22;36525;49.398;7.614;2022-08-19T13:44:16;32.50;78.80
50570;DHT22;36525;49.398;7.614;2022-08-19T13:46:45;33.40;79.30
50570;DHT22;36525;49.398;7.614;2022-08-19T13:49:19;33.80;75.90
50570;DHT22;36525;49.398;7.614;2022-08-19T13:51:47;33.30;77.00
50570;DHT22;36525;49.398;7.614;2022-08-19T13:54:14;33.10;77.20
50570;DHT22;36525;49.398;7.614;2022-08-19T13:56:43;33.40;77.80
50570;DHT22;36525;49.398;7.614;2022-08-19T13:59:11;33.50;77.40
50570;DHT22;36525;49.398;7.614;2022-08-19T14:01:39;34.90;78.90
50570;DHT22;36525;49.398;7.614;2022-08-19T14:04:07;34.60;74.10
50570;DHT22;36525;49.398;7.614;2022-08-19T14:06:34;33.40;75.50
50570;DHT22;36525;49.398;7.614;2022-08-19T14:09:02;32.50;76.10
50570;DHT22;36525;49.398;7.614;2022-08-19T14:11:29;32.20;77.70
50570;DHT22;36525;49.398;7.614;2022-08-19T14:13:56;33.20;75.40
50570;DHT22;36525;49.398;7.614;2022-08-19T14:16:23;34.10;74.30
50570;DHT22;36525;49.398;7.614;2022-08-19T14:18:51;34.60;72.30
50570;DHT22;36525;49.398;7.614;2022-08-19T14:21:22;35.30;71.70
50570;DHT22;36525;49.398;7.614;2022-08-19T14:23:50;35.90;71.10
50570;DHT22;36525;49.398;7.614;2022-08-19T14:26:18;36.70;70.10
50570;DHT22;36525;49.398;7.614;2022-08-19T14:28:46;36.80;70.30
50570;DHT22;36525;49.398;7.614;2022-08-19T14:31:15;35.90;69.00
50570;DHT22;36525;49.398;7.614;2022-08-19T14:33:46;34.70;70.20
50570;DHT22;36525;49.398;7.614;2022-08-19T14:36:14;33.30;72.80
50570;DHT22;36525;49.398;7.614;2022-08-19T14:38:42;32.80;73.70
50570;DHT22;36525;49.398;7.614;2022-08-19T14:41:18;33.30;74.50
50570;DHT22;36525;49.398;7.614;2022-08-19T14:43:48;33.50;74.60
50570;DHT22;36525;49.398;7.614;2022-08-19T14:46:21;32.80;75.20
50570;DHT22;36525;49.398;7.614;2022-08-19T14:48:51;32.30;77.00
50570;DHT22;36525;49.398;7.614;2022-08-19T14:51:20;32.50;77.20
50570;DHT22;36525;49.398;7.614;2022-08-19T14:53:50;33.40;76.80
50570;DHT22;36525;49.398;7.614;2022-08-19T14:56:21;34.50;73.80
50570;DHT22;36525;49.398;7.614;2022-08-19T14:58:49;34.90;72.40
50570;DHT22;36525;49.398;7.614;2022-08-19T15:01:21;35.60;71.60
50570;DHT22;36525;49.398;7.614;2022-08-19T15:03:49;35.70;71.40
50570;DHT22;36525;49.398;7.614;2022-08-19T15:06:25;35.30;72.50
50570;DHT22;36525;49.398;7.614;2022-08-19T15:08:53;35.80;73.80
50570;DHT22;36525;49.398;7.614;2022-08-19T15:11:23;36.10;72.20
50570;DHT22;36525;49.398;7.614;2022-08-19T15:13:54;35.90;71.00
50570;DHT22;36525;49.398;7.614;2022-08-19T15:16:23;36.00;72.30
50570;DHT22;36525;49.398;7.614;2022-08-19T15:18:56;36.10;70.90
50570;DHT22;36525;49.398;7.614;2022-08-19T15:21:25;35.90;71.20
50570;DHT22;36525;49.398;7.614;2022-08-19T15:23:55;35.80;70.80
50570;DHT22;36525;49.398;7.614;2022-08-19T15:26:23;35.70;71.20
50570;DHT22;36525;49.398;7.614;2022-08-19T15:28:52;36.20;70.80
50570;DHT22;36525;49.398;7.614;2022-08-19T15:31:20;36.30;71.60
50570;DHT22;36525;49.398;7.614;2022-08-19T15:33:55;36.70;70.30
50570;DHT22;36525;49.398;7.614;2022-08-19T15:36:24;35.90;70.70
50570;DHT22;36525;49.398;7.614;2022-08-19T15:38:53;35.60;71.50
50570;DHT22;36525;49.398;7.614;2022-08-19T15:41:25;36.20;70.40
50570;DHT22;36525;49.398;7.614;2022-08-19T15:44:00;37.10;69.80
50570;DHT22;36525;49.398;7.614;2022-08-19T15:46:32;36.40;69.30
50570;DHT22;36525;49.398;7.614;2022-08-19T15:49:00;35.80;70.20
50570;DHT22;36525;49.398;7.614;2022-08-19T15:51:29;35.90;70.60
50570;DHT22;36525;49.398;7.614;2022-08-19T15:53:58;35.90;69.60
50570;DHT22;36525;49.398;7.614;2022-08-19T15:56:25;35.40;69.80
50570;DHT22;36525;49.398;7.614;2022-08-19T15:59:24;35.60;70.30
50570;DHT22;36525;49.398;7.614;2022-08-19T16:02:13;36.60;69.50
50570;DHT22;36525;49.398;7.614;2022-08-19T16:05:03;36.70;70.30
50570;DHT22;36525;49.398;7.614;2022-08-19T16:07:51;36.90;69.60